TAF and METAR

Could not understand the following METAR

YBDV 020300Z AUTO 16015KT //// // ////// 36/08 Q1012
No TAF available for Birdsville Airport
Birdsville Airport in Australia at 47m

Latest 5 airports